Terminal Aerodrome Forecast
Issued by NWS

Home | Current Version | Previous Version | Graphics & Text | Print | Product List | Glossary On
Versions: 1 2 3 4 5 6 7 8 9 10 11 12 13 14 15 16 17 18 19 20 21 22 23
000
FTUS43 KGRB 191100
TAFRHI
TAF
KRHI 191120Z 1912/2012 18004KT P6SM SCT050 BKN080
     FM191600 21010G19KT P6SM SCT040 BKN080
     FM192000 20009KT P6SM BKN040 BKN080 PROB30 1921/2003 -SHRA
     FM200300 20004KT P6SM SCT045 BKN090=

USA.gov is the U.S. government's official web portal to all federal, state and local government web resources and services.